Penns Creek, PA

3:34 PM EDT on July 04, 2015 (GMT -0400)
On Creekside - Along Scenic Penns Creek | | Change Station
CLOSE
Current Station
Personal Weather Station
Location: New Berlin, PA
Elevation: 513 ft
Nearby Weather Stations

Elev 513 ft 40.88 °N, 76.99 °W | Updated 18 seconds ago

Overcast
Overcast
70.0 °F
Feels Like 70.0 °F
N
0.0
Wind Variable Wind from North
Gusts 0.0 mph

Today
High -- | Low -- °F
--% Chance of Precip.
Yesterday
High -- | Low -- °F
Precip. -- in
5:41 AM 8:43 PM
Waning Gibbous, 90% visible
Pressure 29.97 in
Visibility 3.0 miles
Clouds Scattered Clouds 900 ft
Overcast 3100 ft
Dew Point 40 °F
Humidity 33%
Rainfall in
Snow Depth Not available.
UV 3 out of 12
Pollen .60 out of 12
Air Quality Not available.
Flu Activity Not available.
SPECI KSEG 041911Z AUTO 35003KT 3SM -RA BR SCT009 OVC031 19/18 A2997 RMK AO2 P0000 T01940178

More Conditions Fewer Conditions

Pressure 29.97 in
Visibility 3.0 miles
Clouds Scattered Clouds 900 ft
Overcast 3100 ft
Dew Point 40 °F
Humidity 33%
Rainfall in
Snow Depth Not available.
UV 3 out of 12
Pollen .60 out of 12
Air Quality Not available.
Flu Activity Not available.
SPECI KSEG 041911Z AUTO 35003KT 3SM -RA BR SCT009 OVC031 19/18 A2997 RMK AO2 P0000 T01940178

More Conditions Fewer Conditions

10-Day Weather Forecast

×

Almanac

Astronomy

Jul. 04, 2015 Rise Set
Actual Time
Civil Twilight
Nautical Twilight
Astronomical Twilight
Moon
Length of Visible Light
Length of Day
Tomorrow will be .
, % of the Moon is Illuminated

Today's Extremes

State Highs State Lows

Community

WunderPhotos

Upload Photos

1,835,065 photos uploaded!

WunderBlogs® & News

Nearby

Air Quality

  Air Quality AQ Index Pollutant
Not available.

Snow Depth

Station Depth Elevation

Earthquake Activity

City Distance Mag. Time & Date
Minimum magnitude displayed is 2.5.

Coastal Water Temperatures

Place Temperature

Stations

Nearby Weather Stations

Station Location Temp. Windchill Dew Point Humidity Wind Precip. Elev Updated Type